x

Cape Elizabeth- 45nm Nw Of Aberdeen, Wa (46041) Wave Buoy

11:50am - Sat 25th Feb 2017 All times are PST. -8 hours from GMT.

  • Sig Wave height 6.2ft
  • Swell Direction
  • Peak Period 14s
  • Average Period 9s
  • Wind
    11mph, 16mph gusts
  • Sea Temp 47°f
  • Air Temp 42°f
  • Sea Pressure 1023.7mb
  • Cape Elizabeth- 45nm Nw Of Aberdeen, Wa
  • Cape Elizabeth- 45nm Nw Of Aberdeen, Wa

More Historic Weather Station data

Upgrade to MSW Pro to gain access to the past 30 days of data for over 8000 Wavebouys and Weather Stations around the globe.

Join Pro

Comparision Forecast

View Surf forecast
   
Sat 02/25 11:50am 6ft 14s 9s 11 16 mph 1023.7mb 47f 42f
10:50am 6ft 14s 9s 4 7 mph 1024mb 47f 42f
9:50am 6.5ft 14s 9s 2 4 mph 1024.6mb 47f 43f
8:50am 6ft 14s 9s 2 4 mph 1024.9mb 47f 42f
7:50am 6ft 14s 9s 4 7 mph 1024.9mb 46f 41f
6:50am 6ft 14s 10s 4
mph
1024.7mb 47f 41f
5:50am 6ft 14s 9s 4
mph
1024.8mb 47f 41f
4:50am 6ft 14s 10s 4 7 mph 1024.8mb 46f 41f
3:50am 5ft 14s 9s 4
mph
1024.9mb 47f 42f
2:50am 6ft 14s 9s 4 7 mph 1025mb 47f 42f
1:50am 5ft 15s 8s 7 9 mph 1024.7mb 47f 42f
12:50am 5ft 14s 8s 11 13 mph 1024.5mb 47f 42f
Fri 02/24 11:50pm 6ft 15s 8s 9 13 mph 1024.1mb 47f 42f
10:50pm 5.5ft 14s 8s 7 9 mph 1024mb 47f 42f
9:50pm 6ft 15s 8s 13 18 mph 1023.7mb 47f 42f
8:50pm 5ft 14s 8s 13 16 mph 1023.3mb 47f 42f
7:50pm 6ft 14s 8s 11 13 mph 1022.8mb 47f 42f
6:50pm 5ft 14s 8s 9 11 mph 1022.5mb 47f 42f
5:50pm 5ft 14s 7s 9 13 mph 1021.8mb 48f 41f
4:50pm 5ft 15s 7s 11 13 mph 1021.3mb 48f 40f
3:50pm 5.5ft 15s 7s 16 20 mph 1020.7mb 48f 41f
2:50pm 5ft 15s 6s 16 18 mph 1020.5mb 48f 40f
1:50pm 6ft 15s 6s 18 22 mph 1020.3mb 48f 40f
12:50pm 6ft 15s 6s 18 22 mph 1020.1mb 48f 40f
11:50am 5ft 15s 5s 20 25 mph 1019.8mb 48f 40f
10:50am 5ft 16s 6s 16 25 mph 1019.4mb 48f 40f
9:50am 5ft 15s 7s 18 20 mph 1019.1mb 48f 39f
8:50am 5.5ft 16s 7s 11 16 mph 1019mb 48f 39f
7:50am 5ft 16s 7s 7 9 mph 1018.9mb 47f 39f
6:50am 5.5ft 16s 7s 7 9 mph 1019mb 47f 38f
5:50am 5ft 16s 7s 9 11 mph 1019.2mb 48f 38f
4:50am 5ft 10s 7s 7 9 mph 1019.6mb 48f 38f
3:50am 5.5ft 16s 7s 11 16 mph 1019.9mb 48f 39f
2:50am 5.5ft 16s 7s 9 16 mph 1020.3mb 48f 41f
1:50am 5ft 16s 6s 4 9 mph 1020.7mb 48f 40f
12:50am 6ft 16s 7s 13 20 mph 1020.9mb 48f 40f
Thu 02/23 11:50pm 5ft 9s 7s 13 16 mph 1021.2mb 48f 42f
10:50pm 5.5ft 8s 7s 2 7 mph 1021.9mb 48f 42f
9:50pm 5ft 8s 7s 4 9 mph 1022.3mb 48f 43f
8:50pm 6ft 10s 7s 11 16 mph 1022.3mb 48f 43f
7:50pm 5.5ft 11s 7s 16 18 mph 1022.5mb 48f 43f
6:50pm 5.5ft 10s 7s 11 16 mph 1022.9mb 48f 43f
5:50pm 6ft 9s 7s 11 16 mph 1023.2mb 48f 43f
4:50pm 6.5ft 11s 7s 13 16 mph 1023.2mb 48f 44f
3:50pm 6ft 8s 7s 4
mph
1023.4mb 48f 44f
2:50pm 5.5ft 10s 7s 7 9 mph 1023.8mb 48f 44f
1:50pm 5.5ft 10s 7s 7
mph
1024.1mb 48f 43f
12:50pm 5ft 8s 7s 4 7 mph 1024.4mb 48f 42f
11:50am 5.5ft 8s 7s 7 9 mph 1024.8mb 47f 42f
10:50am 5ft 8s 7s 9 11 mph 1024.7mb 47f 40f
9:50am 5ft 11s 7s 9 11 mph 1024.6mb 47f 39f
8:50am 5ft 8s 7s 9 11 mph 1024.3mb 47f 41f
7:50am 4.5ft 11s 7s 7 9 mph 1024.1mb 47f 41f
6:50am 5ft 8s 7s 7 9 mph 1023.5mb 47f 42f
5:50am 5ft 12s 8s 4 7 mph 1023.6mb 46f 42f
4:50am 5ft 12s 8s 4 7 mph 1023.5mb 46f 42f
3:50am 5ft 12s 8s 4
mph
1023.5mb 47f 41f
2:50am 5ft 12s 8s 4 7 mph 1023.5mb 47f 41f
1:50am 5.5ft 11s 8s 7 9 mph 1023.5mb 47f 42f
12:50am 5ft 13s 8s 7 9 mph 1023.5mb 47f 43f
Wed 02/22 11:50pm 5.5ft 11s 8s 7 9 mph 1023.4mb 47f 43f
10:50pm 5ft 12s 8s 7 11 mph 1023.2mb 49f 44f
9:50pm 6ft 12s 8s 7 9 mph 1023.2mb 49f 43f
8:50pm 5.5ft 11s 7s 9 13 mph 1022.9mb 49f 42f
7:50pm 6ft 13s 8s 7 9 mph 1022.7mb 49f 43f
6:50pm 5ft 13s 8s 9 11 mph 1022.9mb 49f 43f
5:50pm 5.5ft 11s 8s 9 13 mph 1022.8mb 49f 43f
4:50pm 5ft 13s 8s 11 13 mph 1022.6mb 48f 43f
3:50pm 6ft 13s 8s 9 11 mph 1022.7mb 48f 42f
2:50pm 6ft 13s 8s 13 18 mph 1023mb 48f 40f
1:50pm 6ft 14s 7s 9 13 mph 1022.9mb 48f 41f
12:50pm 6ft 14s 7s 4 7 mph 1022.9mb 48f 42f
11:50am 6ft 14s 8s 7 9 mph 1023.2mb 47f 41f
10:50am 6ft 14s 8s 4 7 mph 1023.1mb 47f 40f
9:50am 5ft 15s 7s 4 7 mph 1023mb 47f 40f
8:50am 5.5ft 14s 8s 9 11 mph 1023.1mb 48f 39f
7:50am 6ft 14s 8s 7 9 mph 1022.7mb 48f 39f
6:50am 6ft 15s 7s 13 16 mph 1022.2mb 48f 40f
5:50am 6.5ft 15s 7s 4 11 mph 1022.3mb 48f 42f
4:50am 6.5ft 15s 7s 11 16 mph 1022.3mb 49f 43f
2:50am 7ft 15s 7s 18 22 mph 1022mb 49f 44f
1:50am 6ft 15s 7s 16 20 mph 1022mb 49f 45f
12:50am 5.5ft 10s 6s 13 18 mph 1021.9mb 49f 45f
Tue 02/21 11:50pm 6ft 16s 6s 13 18 mph 1021.6mb 49f 45f
10:50pm 6ft 11s 6s 16 18 mph 1021.2mb 49f 46f
9:50pm 6ft 11s 6s 16 20 mph 1020.7mb 49f 46f